Flight Track Log - Related Links

Times and Time Zones

All times are in EDT time to prevent confusion due to time zone crossing. See the FLG4099 flight status page for this flight to view local times or setup timezone preferences in your user account.


Time Position Orientation Groundspeed Altitude Reporting Facility
EDT Latitude Longitude Course Direction KTS MPH feet Rate Location/Type
Fri 09:19:00 AM 44.4016 -73.5371 253° West  Level FlightAware Approximate
Fri 09:19:18 AM 44.3406 -73.1367 256° West 222 255 6,400  Level Boston Center
Fri 09:20:00 AM 44.3744 -73.6643 253° West  Level FlightAware Approximate
Fri 09:20:18 AM 44.3272 -73.2353 259° West 264 304 9,200  Level Boston Center
Fri 09:21:00 AM 44.3534 -73.7936 259° West  Level FlightAware Approximate
Fri 09:21:18 AM 44.3142 -73.3367 260° West 264 304 11,300  Level Boston Center
Fri 09:22:00 AM 44.3347 -73.9238 259° West  Level FlightAware Approximate
Fri 09:22:18 AM 44.3006 -73.4494 260° West 285 328 12,800  Level Boston Center
Fri 09:23:00 AM 44.3115 -74.0524 256° West  Level FlightAware Approximate
Fri 09:23:18 AM 44.2869 -73.5739 261° West 313 360 14,300  Level Boston Center
Fri 09:24:00 AM 44.2878 -74.1808 256° West  Level FlightAware Approximate
Fri 09:24:18 AM 44.2711 -73.7011 260° West 330 380 16,100  Level Boston Center
Fri 09:25:18 AM 44.2550 -73.8283 260° West 330 380 17,700 1,350 Climbing Boston Center
Fri 09:26:18 AM 44.2389 -73.9528 260° West 330 380 18,800 1,050 Climbing Boston Center
Fri 09:27:18 AM 44.2225 -74.0825 260° West 335 386 19,800 850 Climbing Boston Center
Fri 09:28:18 AM 44.2039 -74.2153 259° West 340 391 20,500 850 Climbing Boston Center
Fri 09:29:18 AM 44.1869 -74.3597 261° West 361 415 21,500 1,050 Climbing Boston Center
Fri 09:30:18 AM 44.1681 -74.4950 259° West 361 415 22,600 1,050 Climbing Boston Center
Fri 09:31:18 AM 44.1508 -74.6306 260° West 366 421 23,600 950 Climbing Boston Center
Fri 09:32:18 AM 44.1356 -74.7689 261° West 366 421 24,500 800 Climbing Boston Center
Fri 09:33:18 AM 44.1139 -74.9097 258° West 371 427 25,200 600 Climbing Boston Center
Fri 09:34:18 AM 44.0961 -75.0506 260° West 371 427 25,700 500 Climbing Boston Center
Fri 09:35:18 AM 44.0761 -75.1942 259° West 371 427 26,200 500 Climbing Boston Center
Fri 09:36:18 AM 44.0561 -75.3378 259° West 371 427 26,700 550 Climbing Boston Center
Fri 09:37:18 AM 44.0331 -75.4983 259° West 385 443 27,300 550 Climbing Boston Center
Fri 09:38:18 AM 44.0144 -75.6447 260° West 390 449 27,800 350 Climbing Boston Center
Fri 09:39:18 AM 43.9936 -75.7908 259° West 390 449 28,000 100 Climbing Boston Center
Fri 09:40:18 AM 43.9725 -75.9425 259° West 390 449 28,000  Level Boston Center
Fri 09:41:18 AM 43.9550 -76.0975 261° West 400 460 28,000  Level Boston Center
Fri 09:42:18 AM 43.9531 -76.2242 269° West 405 466 28,000  Level Boston Center
Fri 09:43:18 AM 43.9447 -76.4111 267° West 405 466 28,000  Level Boston Center
Fri 09:44:18 AM 43.9433 -76.5697 269° West 405 466 28,000  Level Boston Center
Fri 09:45:02 AM 43.9333 -76.6667 262° West 410 472 28,000  Level Toronto Center
Fri 09:46:02 AM 43.9167 -76.8167 261° West 410 472 28,000  Level Toronto Center
Fri 09:47:02 AM 43.9167 -76.9667 270° West 420 483 28,000  Level Toronto Center
Fri 09:48:02 AM 43.9000 -77.1333 262° West 420 483 28,000  Level Toronto Center
Fri 09:49:02 AM 43.9000 -77.3000 270° West 420 483 28,000  Level Toronto Center
Fri 09:50:02 AM 43.9000 -77.4500 270° West 420 483 28,000  Level Toronto Center
Fri 09:51:02 AM 43.9000 -77.6167 270° West 420 483 28,000  Level Toronto Center
Fri 09:52:02 AM 43.8833 -77.7833 262° West 420 483 28,000  Level Toronto Center
Fri 09:53:02 AM 43.8833 -77.9500 270° West 420 483 28,000  Level Toronto Center
Fri 09:54:02 AM 43.8667 -78.1000 261° West 430 495 28,000  Level Toronto Center
Fri 09:55:02 AM 43.8667 -78.2833 270° West 430 495 28,000  Level Toronto Center
Fri 09:56:02 AM 43.8500 -78.4333 261° West 430 495 28,000  Level Toronto Center
Fri 09:57:02 AM 43.8667 -78.6000 278° West 430 495 28,000  Level Toronto Center
Fri 09:58:02 AM 43.8500 -78.7833 263° West 430 495 28,000  Level Toronto Center
Fri 09:59:02 AM 43.7833 -78.9167 235° Southwest 440 506 28,000  Level Toronto Center
Fri 10:00:02 AM 43.7167 -79.0500 235° Southwest 450 518 28,000  Level Toronto Center
Fri 10:01:02 AM 43.6333 -79.2000 233° Southwest 450 518 28,000  Level Toronto Center
Fri 10:02:02 AM 43.5667 -79.3333 235° Southwest 450 518 28,000  Level Toronto Center
Fri 10:03:02 AM 43.4833 -79.4667 229° Southwest 450 518 28,000  Level Toronto Center
Fri 10:04:02 AM 43.4167 -79.6167 239° Southwest 450 518 28,000 -233 Level Toronto Center
Fri 10:06:02 AM 43.2667 -79.8833 232° Southwest 450 518 27,300 -533 Descending Toronto Center
Fri 10:07:02 AM 43.1833 -80.0167 229° Southwest 460 529 26,400 -850 Descending Toronto Center
Fri 10:08:02 AM 43.1000 -80.1500 229° Southwest 460 529 25,600 -650 Descending Toronto Center
Fri 10:09:02 AM 43.0333 -80.2667 232° Southwest 430 495 25,100 -650 Descending Toronto Center
Fri 10:10:02 AM 42.9667 -80.4000 236° Southwest 400 460 24,300 -800 Descending Toronto Center
Fri 10:11:02 AM 42.9000 -80.5167 232° Southwest 400 460 23,500 -650 Descending Toronto Center
Fri 10:12:02 AM 42.8333 -80.6333 232° Southwest 390 449 23,000 -250 Descending Toronto Center
Fri 10:13:02 AM 42.7833 -80.7500 240° Southwest 380 437 23,000  Level Toronto Center
Fri 10:14:02 AM 42.7000 -80.8500 221° Southwest 380 437 23,000 -450 Level Toronto Center
Fri 10:15:02 AM 42.6667 -81.0000 253° West 390 449 22,100 -1,000 Descending Toronto Center
Fri 10:16:02 AM 42.6667 -81.1333 270° West 380 437 21,000 -550 Descending Toronto Center
Fri 10:17:02 AM 42.6500 -81.2833 261° West 370 426 21,000 -100 Level Toronto Center
Fri 10:18:02 AM 42.6333 -81.4167 260° West 370 426 20,800 -900 Descending Toronto Center
Fri 10:19:02 AM 42.6167 -81.5667 261° West 370 426 19,200 -1,500 Descending Toronto Center
Fri 10:20:02 AM 42.6000 -81.7000 260° West 370 426 17,800 -1,100 Descending Toronto Center
Fri 10:21:02 AM 42.5833 -81.8333 260° West 360 414 17,000 -400 Descending Toronto Center
Fri 10:22:02 AM 42.5667 -81.9667 260° West 350 403 17,000  Level Toronto Center
Fri 10:23:02 AM 42.5500 -82.0833 259° West 350 403 17,000 -600 Level Toronto Center
Fri 10:24:02 AM 42.5333 -82.2167 260° West 360 414 15,800 -1,250 Descending Toronto Center
Fri 10:25:02 AM 42.5500 -82.3500 280° West 330 380 14,500 -1,300 Descending Toronto Center
Fri 10:26:02 AM 42.5333 -82.4333 255° West 290 334 13,200 -1,300 Descending Toronto Center
Fri 10:27:02 AM 42.5000 -82.5500 249° West 290 334 11,900 -1,400 Descending Toronto Center
Fri 10:28:02 AM 42.4500 -82.6333 231° Southwest 290 334 10,400 -1,400 Descending Toronto Center
Fri 10:29:02 AM 42.4167 -82.7333 246° West 280 322 9,100 -1,150 Descending Toronto Center
Fri 10:30:02 AM 42.3833 -82.8167 242° Southwest 280 322 8,100 -950 Descending Toronto Center
Fri 10:31:02 AM 42.3833 -82.9333 270° West 260 299 7,200 -950 Descending Toronto Center
Fri 10:32:02 AM 42.4000 -83.0000 289° West 230 265 6,200 -943 Descending Toronto Center
Fri 10:33:22 AM 42.4092 -83.1197 276° West 231 266 5,000 -943 Descending Cleveland Center
Fri 10:34:22 AM 42.3931 -83.1950 254° West 226 260 4,000 -1,000 Descending Cleveland Center

Login

Don't have an account? Register now (free) for customized features, flight alerts, and more!